createdAt,value
2022-11-20T05:01:04.868Z,99.54
2022-11-20T05:02:06.298Z,99.33
2022-11-20T05:03:04.569Z,99.33
2022-11-20T05:04:07.337Z,99.43
2022-11-20T05:05:04.539Z,99.33
2022-11-20T05:06:04.555Z,99.33
2022-11-20T05:07:05.963Z,99.33
2022-11-20T05:08:04.563Z,99.23
2022-11-20T05:09:04.487Z,99.29
2022-11-20T05:10:04.497Z,99.29
2022-11-20T05:11:04.466Z,99.29
2022-11-20T05:12:04.474Z,99.18
2022-11-20T05:13:05.175Z,99.08
2022-11-20T05:14:11.460Z,98.77
2022-11-20T05:15:04.422Z,98.87
2022-11-20T05:16:04.420Z,98.97
2022-11-20T05:17:04.381Z,98.97
2022-11-20T05:18:04.401Z,98.87
2022-11-20T05:19:04.749Z,98.72
2022-11-20T05:20:04.376Z,98.41
2022-11-20T05:21:04.340Z,98.41
2022-11-20T05:22:04.381Z,98.31
2022-11-20T05:23:04.328Z,98.10
2022-11-20T05:24:04.337Z,98.00
2022-11-20T05:25:04.365Z,98.00
2022-11-20T05:26:04.308Z,98.10
2022-11-20T05:27:04.279Z,97.59
2022-11-20T05:28:04.261Z,97.54
2022-11-20T05:29:04.237Z,97.54
2022-11-20T05:30:04.252Z,97.54
2022-11-20T05:31:04.257Z,97.23
2022-11-20T05:32:04.283Z,97.13
2022-11-20T05:33:04.187Z,97.13
2022-11-20T05:34:04.197Z,97.13
2022-11-20T05:35:04.164Z,96.92
2022-11-20T05:36:04.177Z,96.82
2022-11-20T05:37:04.176Z,96.61
2022-11-20T05:38:04.196Z,96.72
2022-11-20T05:39:04.144Z,96.36
2022-11-20T05:40:04.144Z,96.26
2022-11-20T05:41:04.079Z,96.05
2022-11-20T05:42:04.145Z,96.05
2022-11-20T05:43:04.063Z,95.95
2022-11-20T05:44:04.073Z,95.64
2022-11-20T05:45:04.063Z,95.74
2022-11-20T05:46:04.044Z,95.84
2022-11-20T05:47:04.012Z,95.84
2022-11-20T05:48:04.024Z,96.05
2022-11-20T05:49:03.993Z,96.05
2022-11-20T05:50:03.961Z,95.64
2022-11-20T05:51:04.011Z,95.43
2022-11-20T05:52:03.942Z,95.43
2022-11-20T05:53:03.941Z,95.53
2022-11-20T05:54:03.910Z,95.43
2022-11-20T05:55:03.930Z,95.64
2022-11-20T05:56:03.898Z,95.53
2022-11-20T05:57:03.970Z,95.22
2022-11-20T05:58:03.866Z,95.32
2022-11-20T05:59:03.892Z,95.22
2022-11-20T06:00:03.868Z,95.12
2022-11-20T06:01:03.835Z,95.22
2022-11-20T06:02:03.808Z,95.12
2022-11-20T06:03:03.925Z,95.12
2022-11-20T06:04:03.788Z,95.43
2022-11-20T06:05:03.806Z,95.22
2022-11-20T06:06:03.756Z,95.22
2022-11-20T06:07:03.843Z,95.22
2022-11-20T06:08:03.746Z,94.97
2022-11-20T06:09:03.927Z,95.18
2022-11-20T06:10:03.709Z,94.56
2022-11-20T06:11:03.726Z,94.67
2022-11-20T06:12:03.684Z,94.56
2022-11-20T06:13:03.713Z,94.77
2022-11-20T06:14:03.673Z,94.77
2022-11-20T06:15:03.875Z,94.77
2022-11-20T06:16:03.626Z,94.77
2022-11-20T06:17:03.644Z,94.67
2022-11-20T06:18:03.608Z,94.46
2022-11-20T06:19:03.613Z,94.67
2022-11-20T06:20:03.574Z,94.25
2022-11-20T06:21:03.702Z,94.15
2022-11-20T06:22:03.543Z,94.25
2022-11-20T06:23:12.240Z,94.35
2022-11-20T06:24:11.037Z,94.40
2022-11-20T06:25:10.545Z,94.40
2022-11-20T06:26:10.553Z,94.60
2022-11-20T06:27:10.529Z,94.67
2022-11-20T06:28:03.496Z,94.71
2022-11-20T06:29:03.471Z,94.81
2022-11-20T06:30:03.447Z,94.40
2022-11-20T06:31:03.498Z,94.40
2022-11-20T06:32:03.410Z,94.04
2022-11-20T06:33:03.478Z,93.94
2022-11-20T06:34:03.411Z,93.94
2022-11-20T06:35:03.408Z,94.04
2022-11-20T06:36:08.913Z,94.04
2022-11-20T06:37:04.398Z,93.94
2022-11-20T06:38:03.375Z,94.15
2022-11-20T06:39:03.385Z,94.25
2022-11-20T06:40:03.325Z,94.15
2022-11-20T06:41:03.336Z,94.15
2022-11-20T06:42:03.295Z,93.94
2022-11-20T06:43:03.366Z,94.19
2022-11-20T06:44:03.275Z,94.46
2022-11-20T06:45:03.284Z,94.09
2022-11-20T06:46:03.263Z,93.47
2022-11-20T06:47:03.246Z,93.53
2022-11-20T06:48:03.257Z,93.32
2022-11-20T06:49:03.240Z,93.73
2022-11-20T06:50:03.184Z,93.43
2022-11-20T06:51:03.212Z,93.53
2022-11-20T06:52:03.175Z,93.63
2022-11-20T06:53:03.211Z,93.53
2022-11-20T06:54:03.135Z,93.63
2022-11-20T06:55:03.150Z,93.73
2022-11-20T06:56:03.180Z,93.53
2022-11-20T06:57:03.144Z,93.43
2022-11-20T06:58:03.103Z,93.43
2022-11-20T06:59:03.122Z,93.53
2022-11-20T07:00:03.066Z,93.32
2022-11-20T07:01:03.092Z,93.53
2022-11-20T07:02:03.079Z,93.53
2022-11-20T07:03:03.039Z,93.53
2022-11-20T07:04:03.010Z,93.43
2022-11-20T07:05:03.058Z,93.01
2022-11-20T07:06:02.988Z,92.70
2022-11-20T07:07:03.046Z,92.91
2022-11-20T07:08:03.187Z,93.01
2022-11-20T07:09:02.967Z,92.91
2022-11-20T07:10:02.976Z,93.01
2022-11-20T07:11:02.941Z,93.01
2022-11-20T07:12:02.908Z,93.01
2022-11-20T07:13:02.945Z,92.80
2022-11-20T07:14:02.949Z,92.80
2022-11-20T07:15:02.902Z,92.91
2022-11-20T07:16:02.865Z,93.01
2022-11-20T07:17:02.907Z,93.01
2022-11-20T07:18:02.835Z,92.60
2022-11-20T07:19:02.834Z,92.70
2022-11-20T07:20:02.855Z,92.80
2022-11-20T07:21:02.823Z,92.29
2022-11-20T07:22:02.791Z,92.50
2022-11-20T07:23:02.785Z,92.50
2022-11-20T07:24:02.764Z,92.40
2022-11-20T07:25:02.765Z,92.60
2022-11-20T07:26:02.773Z,92.19
2022-11-20T07:27:02.747Z,92.40
2022-11-20T07:28:02.708Z,92.29
2022-11-20T07:29:02.775Z,92.60
2022-11-20T07:30:02.693Z,92.19
2022-11-20T07:31:02.841Z,92.40
2022-11-20T07:32:02.709Z,92.60
2022-11-20T07:33:02.660Z,92.50
2022-11-20T07:34:02.664Z,92.70
2022-11-20T07:35:02.630Z,92.60
2022-11-20T07:36:02.687Z,92.60
2022-11-20T07:37:07.473Z,92.29
2022-11-20T07:38:03.580Z,92.19
2022-11-20T07:39:02.679Z,92.19
2022-11-20T07:40:02.577Z,92.19
2022-11-20T07:41:02.762Z,91.67
2022-11-20T07:42:02.619Z,91.77
2022-11-20T07:43:02.556Z,91.77
2022-11-20T07:44:02.497Z,91.56
2022-11-20T07:45:02.507Z,91.42
2022-11-20T07:46:02.464Z,91.11
2022-11-20T07:47:02.498Z,91.11
2022-11-20T07:48:02.637Z,91.11
2022-11-20T07:49:02.458Z,91.22
2022-11-20T07:50:02.419Z,91.01
2022-11-20T07:51:02.643Z,90.91
2022-11-20T07:52:04.985Z,91.01
2022-11-20T07:53:02.426Z,90.91
2022-11-20T07:54:02.487Z,91.01
2022-11-20T07:55:02.375Z,90.91
2022-11-20T07:56:02.551Z,90.80
2022-11-20T07:57:02.343Z,91.11
2022-11-20T07:58:02.336Z,91.01
2022-11-20T07:59:02.333Z,91.11
2022-11-20T08:00:02.295Z,91.11
2022-11-20T08:01:02.429Z,90.97
2022-11-20T08:02:02.366Z,90.55
2022-11-20T08:03:02.282Z,90.35
2022-11-20T08:04:02.253Z,90.51
2022-11-20T08:05:02.255Z,90.10
2022-11-20T08:06:02.374Z,89.48
2022-11-20T08:07:02.240Z,89.48
2022-11-20T08:08:02.182Z,89.28
2022-11-20T08:09:02.182Z,88.86
2022-11-20T08:10:02.194Z,88.76
2022-11-20T08:11:02.171Z,89.07
2022-11-20T08:12:02.175Z,89.38
2022-11-20T08:13:02.143Z,88.86
2022-11-20T08:14:02.102Z,89.58
2022-11-20T08:15:02.170Z,89.48
2022-11-20T08:16:02.095Z,88.86
2022-11-20T08:17:02.128Z,89.28
2022-11-20T08:18:29.020Z,89.34
2022-11-20T08:19:03.111Z,88.62
2022-11-20T08:20:02.027Z,88.82
2022-11-20T08:21:02.092Z,88.92
2022-11-20T08:22:02.129Z,89.13
2022-11-20T08:23:02.014Z,88.51
2022-11-20T08:24:01.976Z,88.41
2022-11-20T08:25:02.159Z,88.92
2022-11-20T08:26:02.225Z,89.03
2022-11-20T08:27:01.957Z,89.13
2022-11-20T08:28:19.916Z,88.72
2022-11-20T08:30:12.636Z,88.82
2022-11-20T08:31:23.029Z,88.82
2022-11-20T08:32:12.637Z,88.72
2022-11-20T08:33:12.636Z,88.68
2022-11-20T08:34:17.565Z,88.78
2022-11-20T08:35:13.816Z,88.37
2022-11-20T08:36:12.574Z,88.31
2022-11-20T08:37:12.580Z,88.47
2022-11-20T08:38:12.773Z,88.26
2022-11-20T08:39:12.563Z,88.26
2022-11-20T08:40:15.808Z,88.37
2022-11-20T08:42:23.250Z,88.57
2022-11-20T08:43:23.140Z,88.47
2022-11-20T08:44:23.120Z,88.57
2022-11-20T08:45:23.120Z,88.37
2022-11-20T08:46:23.091Z,88.06
2022-11-20T08:47:23.111Z,87.96
2022-11-20T08:48:23.579Z,88.37
2022-11-20T08:49:23.297Z,88.47
2022-11-20T08:50:23.096Z,88.78
2022-11-20T08:51:23.129Z,88.89
2022-11-20T08:52:23.032Z,88.89
2022-11-20T08:53:23.059Z,89.34
2022-11-20T08:54:23.019Z,89.54
2022-11-20T08:55:23.040Z,89.75
2022-11-20T08:56:22.988Z,89.95
2022-11-20T08:57:22.977Z,89.75
2022-11-20T08:58:22.961Z,89.85
2022-11-20T08:59:44.037Z,89.85
2022-11-20T09:00:24.681Z,89.95
2022-11-20T09:01:22.971Z,89.54
2022-11-20T09:02:22.907Z,89.75
2022-11-20T09:03:22.903Z,89.85
2022-11-20T09:04:22.862Z,89.91
2022-11-20T09:05:22.890Z,89.81
2022-11-20T09:06:23.054Z,89.40
2022-11-20T09:07:22.877Z,89.19
2022-11-20T09:08:22.809Z,89.50
2022-11-20T09:09:23.228Z,89.71
2022-11-20T09:10:24.455Z,89.61
2022-11-20T09:11:22.911Z,89.91
2022-11-20T09:12:22.815Z,90.01
2022-11-20T09:13:22.787Z,90.12
2022-11-20T09:14:22.816Z,90.08
2022-11-20T09:15:22.748Z,89.67
2022-11-20T09:16:22.714Z,89.67
2022-11-20T09:17:22.713Z,89.67
2022-11-20T09:18:22.794Z,89.56
2022-11-20T09:19:35.824Z,89.77
2022-11-20T09:20:23.681Z,89.36
2022-11-20T09:21:22.716Z,89.36
2022-11-20T09:22:22.630Z,89.46
2022-11-20T09:23:22.652Z,89.67
2022-11-20T09:24:22.660Z,89.62
2022-11-20T09:25:22.707Z,89.52
2022-11-20T09:26:22.581Z,89.52
2022-11-20T09:27:22.594Z,89.83
2022-11-20T09:28:22.631Z,89.73
2022-11-20T09:29:22.913Z,89.83
2022-11-20T09:30:22.560Z,89.62
2022-11-20T09:31:22.647Z,90.28
2022-11-20T09:32:22.509Z,90.59
2022-11-20T09:33:22.510Z,90.59
2022-11-20T09:34:22.490Z,90.80
2022-11-20T09:35:22.605Z,90.90
2022-11-20T09:36:22.476Z,91.11
2022-11-20T09:37:22.446Z,91.21
2022-11-20T09:38:22.427Z,91.11
2022-11-20T09:39:22.695Z,91.00
2022-11-20T09:40:22.427Z,91.00
2022-11-20T09:41:22.496Z,90.80
2022-11-20T09:42:22.432Z,90.96
2022-11-20T09:43:22.373Z,91.17
2022-11-20T09:44:22.335Z,91.38
2022-11-20T09:45:22.362Z,91.27
2022-11-20T09:46:22.378Z,91.11
2022-11-20T09:47:22.437Z,91.31
2022-11-20T09:48:22.315Z,91.62
2022-11-20T09:49:24.270Z,91.72
2022-11-20T09:50:23.257Z,92.03
2022-11-20T09:51:22.275Z,91.72
2022-11-20T09:52:22.252Z,91.83
2022-11-20T09:53:22.289Z,91.62
2022-11-20T09:54:22.220Z,91.58
2022-11-20T09:55:22.217Z,91.78
2022-11-20T09:56:22.858Z,91.78
2022-11-20T09:57:22.192Z,91.89
2022-11-20T09:58:22.151Z,91.78
2022-11-20T09:59:22.361Z,91.83
2022-11-20T10:00:22.173Z,91.93
2022-11-20T10:01:22.324Z,91.93
2022-11-20T10:02:22.173Z,91.99
2022-11-20T10:03:22.137Z,91.83
2022-11-20T10:04:22.097Z,91.78
2022-11-20T10:05:22.092Z,91.78
2022-11-20T10:06:22.044Z,91.72
2022-11-20T10:07:32.581Z,91.58
2022-11-20T10:08:23.151Z,91.47
2022-11-20T10:09:22.228Z,91.58
2022-11-20T10:10:22.054Z,91.47
2022-11-20T10:11:22.003Z,91.47
2022-11-20T10:12:21.981Z,91.47
2022-11-20T10:13:21.991Z,91.27
2022-11-20T10:14:21.961Z,91.38
2022-11-20T10:15:21.961Z,91.38
2022-11-20T10:16:21.988Z,91.47
2022-11-20T10:17:21.969Z,91.47
2022-11-20T10:18:21.901Z,91.78
2022-11-20T10:19:22.205Z,91.78
2022-11-20T10:20:21.892Z,92.10
2022-11-20T10:21:21.870Z,92.14
2022-11-20T10:22:21.892Z,92.34
2022-11-20T10:23:25.775Z,92.76
2022-11-20T10:24:21.820Z,93.06
2022-11-20T10:25:21.871Z,93.16
2022-11-20T10:26:21.922Z,92.96
2022-11-20T10:27:21.799Z,92.86
2022-11-20T10:28:21.774Z,93.06
2022-11-20T10:29:22.187Z,93.16
2022-11-20T10:30:21.766Z,93.06
2022-11-20T10:31:29.298Z,93.27
2022-11-20T10:32:30.386Z,93.27
2022-11-20T10:33:21.707Z,93.58
2022-11-20T10:34:29.204Z,93.68
2022-11-20T10:35:29.189Z,93.48
2022-11-20T10:36:29.158Z,93.48
2022-11-20T10:37:21.726Z,93.27
2022-11-20T10:38:21.625Z,93.06
2022-11-20T10:39:21.731Z,93.06
2022-11-20T10:40:21.617Z,93.16
2022-11-20T10:41:21.614Z,93.37
2022-11-20T10:42:21.590Z,93.48
2022-11-20T10:43:21.624Z,93.58
2022-11-20T10:44:21.753Z,93.99
2022-11-20T10:45:21.575Z,94.30
2022-11-20T10:46:21.546Z,94.81
2022-11-20T10:47:21.614Z,94.92
2022-11-20T10:48:21.514Z,95.12
2022-11-20T10:49:21.645Z,95.53
2022-11-20T10:50:22.490Z,95.95
2022-11-20T10:51:21.470Z,95.78
2022-11-20T10:52:21.502Z,96.30
2022-11-20T10:53:21.612Z,96.30
2022-11-20T10:54:21.494Z,96.61
2022-11-20T10:55:21.469Z,96.61
2022-11-20T10:56:21.455Z,96.50
2022-11-20T10:57:21.401Z,96.50
2022-11-20T10:58:21.434Z,96.71
2022-11-20T10:59:21.789Z,96.92
2022-11-20T11:00:21.383Z,97.23
2022-11-20T11:01:21.454Z,97.33
2022-11-20T11:02:21.368Z,97.43
2022-11-20T11:03:21.304Z,97.64
2022-11-20T11:04:21.317Z,97.74
2022-11-20T11:05:21.519Z,97.43
2022-11-20T11:06:21.354Z,97.33
2022-11-20T11:07:21.317Z,97.43
2022-11-20T11:08:22.000Z,97.53
2022-11-20T11:09:21.527Z,97.53
2022-11-20T11:10:21.292Z,97.53
2022-11-20T11:11:21.258Z,97.33
2022-11-20T11:12:21.226Z,97.53
2022-11-20T11:13:21.218Z,97.64
2022-11-20T11:14:28.204Z,97.64
2022-11-20T11:15:21.188Z,97.64
2022-11-20T11:16:21.169Z,97.43
2022-11-20T11:17:21.149Z,97.53
2022-11-20T11:18:21.118Z,97.64
2022-11-20T11:19:21.368Z,97.53
2022-11-20T11:20:21.109Z,97.53
2022-11-20T11:21:21.268Z,97.53
2022-11-20T11:22:21.079Z,97.53
2022-11-20T11:23:21.047Z,97.60
2022-11-20T11:24:41.001Z,97.39
2022-11-20T11:25:22.015Z,97.28
2022-11-20T11:26:21.038Z,96.88
2022-11-20T11:27:21.267Z,96.97
2022-11-20T11:28:21.011Z,96.88
2022-11-20T11:29:21.331Z,96.52
2022-11-20T11:30:20.979Z,96.42
2022-11-20T11:31:20.940Z,96.42
2022-11-20T11:32:20.956Z,96.11
2022-11-20T11:33:20.979Z,95.90
2022-11-20T11:34:20.927Z,95.90
2022-11-20T11:35:20.908Z,95.65
2022-11-20T11:36:20.893Z,95.55
2022-11-20T11:37:20.868Z,95.24
2022-11-20T11:38:20.953Z,95.30
2022-11-20T11:39:23.462Z,94.99
2022-11-20T11:40:25.045Z,94.48
2022-11-20T11:41:20.813Z,94.17
2022-11-20T11:42:20.812Z,94.02
2022-11-20T11:43:20.787Z,93.82
2022-11-20T11:44:20.804Z,92.99
2022-11-20T11:45:20.932Z,92.54
2022-11-20T11:46:20.760Z,92.33
2022-11-20T11:47:20.742Z,92.33
2022-11-20T11:48:20.744Z,92.33
2022-11-20T11:49:21.224Z,91.31
2022-11-20T11:50:20.731Z,91.72
2022-11-20T11:51:20.911Z,91.72
2022-11-20T11:52:20.731Z,91.78
2022-11-20T11:53:20.662Z,91.67
2022-11-20T11:54:26.156Z,91.57
2022-11-20T11:55:20.631Z,91.16
2022-11-20T11:56:20.653Z,92.19
2022-11-20T11:57:20.901Z,91.47
2022-11-20T11:58:20.619Z,91.37
2022-11-20T11:59:20.844Z,91.47
2022-11-20T12:00:20.590Z,91.67
2022-11-20T12:01:20.569Z,92.50
2022-11-20T12:02:20.598Z,92.70
2022-11-20T12:03:20.618Z,92.60
2022-11-20T12:04:20.539Z,93.01
2022-11-20T12:05:20.534Z,93.01
2022-11-20T12:06:20.516Z,93.01
2022-11-20T12:07:44.269Z,93.52
2022-11-20T12:08:21.668Z,93.87
2022-11-20T12:09:20.891Z,93.57
2022-11-20T12:10:20.530Z,92.95
2022-11-20T12:11:20.426Z,93.26
2022-11-20T12:12:20.447Z,93.87
2022-11-20T12:13:20.426Z,94.02
2022-11-20T12:14:20.541Z,94.23
2022-11-20T12:15:20.470Z,94.84
2022-11-20T12:16:20.498Z,95.15
2022-11-20T12:17:20.372Z,95.15
2022-11-20T12:18:20.361Z,95.25
2022-11-20T12:19:20.545Z,95.67
2022-11-20T12:20:20.414Z,95.93
2022-11-20T12:21:20.383Z,95.72
2022-11-20T12:22:20.322Z,94.85
2022-11-20T12:23:20.273Z,94.85
2022-11-20T12:24:20.342Z,92.29
2022-11-20T12:25:20.274Z,92.66
2022-11-20T12:26:20.493Z,92.55
2022-11-20T12:27:20.233Z,92.04
2022-11-20T12:28:20.251Z,92.55
2022-11-20T12:29:20.439Z,90.85
2022-11-20T12:30:20.263Z,91.37
2022-11-20T12:31:20.244Z,90.75
2022-11-20T12:32:20.274Z,91.27
2022-11-20T12:33:20.249Z,91.78
2022-11-20T12:34:20.173Z,91.27
2022-11-20T12:35:20.128Z,91.51
2022-11-20T12:36:20.212Z,91.88
2022-11-20T12:37:20.098Z,92.19
2022-11-20T12:38:20.211Z,92.19
2022-11-20T12:39:20.412Z,92.60
2022-11-20T12:40:20.113Z,91.99
2022-11-20T12:41:20.063Z,91.61
2022-11-20T12:42:20.061Z,91.72
2022-11-20T12:43:20.020Z,89.15
2022-11-20T12:44:20.078Z,89.56
2022-11-20T12:45:20.011Z,89.76
2022-11-20T12:46:20.080Z,90.18
2022-11-20T12:47:20.093Z,90.38
2022-11-20T12:48:20.001Z,90.55
2022-11-20T12:49:20.147Z,91.16
2022-11-20T12:50:20.446Z,90.55
2022-11-20T12:51:19.961Z,88.08
2022-11-20T12:52:19.946Z,88.08
2022-11-20T12:53:19.896Z,87.37
2022-11-20T12:54:20.045Z,85.00
2022-11-20T12:55:19.891Z,84.59
2022-11-20T12:56:20.253Z,84.59
2022-11-20T12:57:19.838Z,84.69
2022-11-20T12:58:19.849Z,84.49
2022-11-20T12:59:19.817Z,83.15
2022-11-20T13:00:19.828Z,83.87
2022-11-20T13:01:19.832Z,82.95
2022-11-20T13:02:19.818Z,83.36
2022-11-20T13:03:19.776Z,83.67
2022-11-20T13:04:19.776Z,82.84
2022-11-20T13:05:19.837Z,82.84
2022-11-20T13:06:19.768Z,83.46
2022-11-20T13:07:19.999Z,83.77
2022-11-20T13:08:19.729Z,83.46
2022-11-20T13:09:19.736Z,83.56
2022-11-20T13:10:19.727Z,82.60
2022-11-20T13:11:19.685Z,81.16
2022-11-20T13:12:19.666Z,81.48
2022-11-20T13:13:19.666Z,79.52
2022-11-20T13:14:19.826Z,79.32
2022-11-20T13:15:19.698Z,77.88
2022-11-20T13:16:19.748Z,78.53
2022-11-20T13:17:19.586Z,78.53
2022-11-20T13:18:19.621Z,78.64
2022-11-20T13:19:19.555Z,79.15
2022-11-20T13:20:19.585Z,80.07
2022-11-20T13:21:19.614Z,80.79
2022-11-20T13:22:19.593Z,81.10
2022-11-20T13:23:19.512Z,80.28
2022-11-20T13:24:19.830Z,80.79
2022-11-20T13:25:19.493Z,81.30
2022-11-20T13:26:19.574Z,80.58
2022-11-20T13:27:19.462Z,81.30
2022-11-20T13:28:21.643Z,80.38
2022-11-20T13:29:19.450Z,80.18
2022-11-20T13:30:19.595Z,80.58
2022-11-20T13:31:19.405Z,79.97
2022-11-20T13:32:19.402Z,78.47
2022-11-20T13:33:19.373Z,78.94
2022-11-20T13:34:20.428Z,78.06
2022-11-20T13:35:19.438Z,78.53
2022-11-20T13:36:19.391Z,78.53
2022-11-20T13:37:20.022Z,78.64
2022-11-20T13:38:19.436Z,77.92
2022-11-20T13:39:19.317Z,78.12
2022-11-20T13:40:19.347Z,78.53
2022-11-20T13:41:19.297Z,78.36
2022-11-20T13:42:19.280Z,78.88
2022-11-20T13:43:19.253Z,79.70
2022-11-20T13:44:19.249Z,80.73
2022-11-20T13:45:19.221Z,80.21
2022-11-20T13:46:19.566Z,79.84
2022-11-20T13:47:19.188Z,79.94
2022-11-20T13:48:19.210Z,79.12
2022-11-20T13:49:19.179Z,78.20
2022-11-20T13:50:19.466Z,79.63
2022-11-20T13:51:19.147Z,79.94
2022-11-20T13:52:19.148Z,80.01
2022-11-20T13:53:19.138Z,80.56
2022-11-20T13:54:19.128Z,81.18
2022-11-20T13:55:19.111Z,81.04
2022-11-20T13:56:19.176Z,81.48
2022-11-20T13:57:19.071Z,82.00
2022-11-20T13:58:19.080Z,82.62
2022-11-20T13:59:19.084Z,82.71
2022-11-20T14:00:19.075Z,81.90
2022-11-20T14:01:19.059Z,81.38
2022-11-20T14:02:19.066Z,80.97
2022-11-20T14:03:19.123Z,81.52
2022-11-20T14:04:20.026Z,81.42
2022-11-20T14:05:19.133Z,82.14
2022-11-20T14:06:19.365Z,81.62
2022-11-20T14:07:18.964Z,82.04
2022-11-20T14:08:19.184Z,82.45
2022-11-20T14:09:18.972Z,82.24
2022-11-20T14:10:18.949Z,82.34
2022-11-20T14:11:18.923Z,82.55
2022-11-20T14:12:18.969Z,82.76
2022-11-20T14:13:19.122Z,82.14
2022-11-20T14:14:18.882Z,81.62
2022-11-20T14:15:18.960Z,80.42
2022-11-20T14:16:18.876Z,79.01
2022-11-20T14:17:18.962Z,77.09
2022-11-20T14:18:18.813Z,75.42
2022-11-20T14:19:19.178Z,75.66
2022-11-20T14:20:18.837Z,77.03
2022-11-20T14:21:18.939Z,76.96
2022-11-20T14:22:18.818Z,76.28
2022-11-20T14:23:18.828Z,77.30
2022-11-20T14:24:18.782Z,77.95
2022-11-20T14:25:18.759Z,78.81
2022-11-20T14:26:19.006Z,78.64
2022-11-20T14:27:18.669Z,78.75
2022-11-20T14:28:18.739Z,78.44
2022-11-20T14:29:18.963Z,78.68
2022-11-20T14:30:18.658Z,78.99
2022-11-20T14:31:18.618Z,79.61
2022-11-20T14:32:18.627Z,80.02
2022-11-20T14:33:18.682Z,79.54
2022-11-20T14:34:18.654Z,79.85
2022-11-20T14:35:19.271Z,80.26
2022-11-20T14:36:18.616Z,80.77
2022-11-20T14:37:18.556Z,80.57
2022-11-20T14:38:18.687Z,80.88
2022-11-20T14:39:18.570Z,81.39
2022-11-20T14:40:18.534Z,80.98
2022-11-20T14:41:18.559Z,80.67
2022-11-20T14:42:18.569Z,81.09
2022-11-20T14:43:18.648Z,81.60
2022-11-20T14:44:18.582Z,81.49
2022-11-20T14:45:18.463Z,81.49
2022-11-20T14:46:18.465Z,81.49
2022-11-20T14:47:18.477Z,81.39
2022-11-20T14:48:18.457Z,82.32
2022-11-20T14:49:18.421Z,82.32
2022-11-20T14:50:18.450Z,82.21
2022-11-20T14:51:18.375Z,82.53
2022-11-20T14:52:19.633Z,81.70
2022-11-20T14:53:18.612Z,82.01
2022-11-20T14:54:18.406Z,82.53
2022-11-20T14:55:18.340Z,82.56
2022-11-20T14:56:18.354Z,82.46
2022-11-20T14:57:18.315Z,82.77
2022-11-20T14:58:18.341Z,83.18
2022-11-20T14:59:19.059Z,83.18
2022-11-20T15:00:18.340Z,83.28
2022-11-20T15:01:18.280Z,82.97
2022-11-20T15:02:18.221Z,83.18
2022-11-20T15:03:18.290Z,82.97
2022-11-20T15:04:18.224Z,82.46
2022-11-20T15:05:18.600Z,82.87
2022-11-20T15:06:18.182Z,83.49
2022-11-20T15:07:18.317Z,83.90
2022-11-20T15:08:18.351Z,83.94
2022-11-20T15:09:18.168Z,84.25
2022-11-20T15:10:18.135Z,84.77
2022-11-20T15:11:18.379Z,84.97
2022-11-20T15:12:18.088Z,85.01
2022-11-20T15:13:18.099Z,85.63
2022-11-20T15:14:18.088Z,85.42
2022-11-20T15:15:18.420Z,85.63
2022-11-20T15:16:18.372Z,85.73
2022-11-20T15:17:18.337Z,85.83
2022-11-20T15:18:18.092Z,86.04
2022-11-20T15:19:18.022Z,85.63
2022-11-20T15:20:18.010Z,85.94
2022-11-20T15:21:17.999Z,85.73
2022-11-20T15:22:18.318Z,85.83
2022-11-20T15:23:18.145Z,86.15
2022-11-20T15:24:18.046Z,86.04
2022-11-20T15:25:17.954Z,86.24
2022-11-20T15:26:20.029Z,86.24
2022-11-20T15:27:18.072Z,86.15
2022-11-20T15:28:17.889Z,86.45
2022-11-20T15:29:18.163Z,86.45
2022-11-20T15:30:17.929Z,86.66
2022-11-20T15:31:17.973Z,86.97
2022-11-20T15:32:17.839Z,86.97
2022-11-20T15:33:17.864Z,87.11
2022-11-20T15:34:17.811Z,87.52
2022-11-20T15:35:18.130Z,87.73
2022-11-20T15:36:17.784Z,88.14
2022-11-20T15:37:17.922Z,88.35
2022-11-20T15:38:17.759Z,88.49
2022-11-20T15:39:17.796Z,88.90
2022-11-20T15:40:17.745Z,89.32
2022-11-20T15:41:17.859Z,89.52
2022-11-20T15:42:17.719Z,89.87
2022-11-20T15:43:17.718Z,90.28
2022-11-20T15:44:17.681Z,90.59
2022-11-20T15:45:17.690Z,91.16
2022-11-20T15:46:17.895Z,91.36
2022-11-20T15:47:17.810Z,91.67
2022-11-20T15:48:17.637Z,92.08
2022-11-20T15:49:17.759Z,92.33
2022-11-20T15:50:17.628Z,93.16
2022-11-20T15:51:17.600Z,93.37
2022-11-20T15:52:17.580Z,93.88
2022-11-20T15:53:18.424Z,94.19
2022-11-20T15:54:17.554Z,94.34
2022-11-20T15:55:17.598Z,94.23
2022-11-20T15:56:17.535Z,94.34
2022-11-20T15:57:17.533Z,95.06
2022-11-20T15:58:17.498Z,95.42
2022-11-20T15:59:18.782Z,95.10
2022-11-20T16:00:23.235Z,95.31
2022-11-20T16:01:18.534Z,95.67
2022-11-20T16:02:19.458Z,95.77
2022-11-20T16:03:17.487Z,96.19
2022-11-20T16:04:17.417Z,96.44
2022-11-20T16:05:18.077Z,96.95
2022-11-20T16:06:17.406Z,96.95
2022-11-20T16:07:17.477Z,96.95
2022-11-20T16:08:17.378Z,97.16
2022-11-20T16:09:17.385Z,97.26
2022-11-20T16:10:17.355Z,97.41
2022-11-20T16:11:17.457Z,97.72
2022-11-20T16:12:17.323Z,97.83
2022-11-20T16:13:17.313Z,97.93
2022-11-20T16:14:17.300Z,97.87
2022-11-20T16:15:17.344Z,98.18
2022-11-20T16:16:17.265Z,98.39
2022-11-20T16:17:17.609Z,98.49
2022-11-20T16:18:17.251Z,98.34
2022-11-20T16:19:17.251Z,98.44
2022-11-20T16:20:17.223Z,98.55
2022-11-20T16:21:17.326Z,98.34
2022-11-20T16:22:17.180Z,98.13
2022-11-20T16:23:17.781Z,98.09
2022-11-20T16:24:17.256Z,98.09
2022-11-20T16:25:17.219Z,97.99
2022-11-20T16:26:17.139Z,97.84
2022-11-20T16:27:17.278Z,98.05
2022-11-20T16:28:19.149Z,98.19
2022-11-20T16:29:17.967Z,98.19
2022-11-20T16:30:17.084Z,98.40
2022-11-20T16:31:17.090Z,98.61
2022-11-20T16:32:17.326Z,98.71
2022-11-20T16:33:17.055Z,98.82
2022-11-20T16:34:17.069Z,98.96
2022-11-20T16:35:17.098Z,99.17
2022-11-20T16:36:17.004Z,99.27
2022-11-20T16:37:17.079Z,99.27
2022-11-20T16:38:17.029Z,99.48
2022-11-20T16:39:23.036Z,99.58
2022-11-20T16:40:18.661Z,99.69
2022-11-20T16:41:17.053Z,99.69
2022-11-20T16:42:17.017Z,99.58
2022-11-20T16:43:16.942Z,99.58
2022-11-20T16:44:16.902Z,99.58
2022-11-20T16:45:23.124Z,99.69
2022-11-20T16:46:18.182Z,99.69
2022-11-20T16:47:17.062Z,99.69
2022-11-20T16:48:16.998Z,99.79
2022-11-20T16:49:16.907Z,99.90
2022-11-20T16:50:16.896Z,99.99
2022-11-20T16:51:16.826Z,99.99
2022-11-20T16:52:16.835Z,99.99
2022-11-20T16:53:16.842Z,99.99
2022-11-20T16:54:20.812Z,99.99
2022-11-20T16:55:16.790Z,99.99
2022-11-20T16:56:16.756Z,99.99
2022-11-20T16:57:16.749Z,99.99
2022-11-20T16:58:16.869Z,99.99
2022-11-20T16:59:16.718Z,99.99
2022-11-20T17:00:17.483Z,99.99
2022-11-20T17:01:17.063Z,99.99
2022-11-20T17:02:16.666Z,99.99
2022-11-20T17:03:16.727Z,99.74
2022-11-20T17:04:16.660Z,99.64
2022-11-20T17:05:16.911Z,99.54
2022-11-20T17:06:16.836Z,99.54
2022-11-20T17:07:16.675Z,99.02
2022-11-20T17:08:16.888Z,98.61
2022-11-20T17:09:16.632Z,98.05
2022-11-20T17:10:16.561Z,98.15
2022-11-20T17:11:16.566Z,98.25
2022-11-20T17:12:16.751Z,97.69
2022-11-20T17:13:16.555Z,97.38
2022-11-20T17:14:23.684Z,97.28
2022-11-20T17:15:16.550Z,97.38
2022-11-20T17:16:16.502Z,97.49
2022-11-20T17:17:16.508Z,96.86
2022-11-20T17:18:16.499Z,96.66
2022-11-20T17:19:16.467Z,96.61
2022-11-20T17:20:16.529Z,96.72
2022-11-20T17:21:16.448Z,96.51
2022-11-20T17:22:16.411Z,96.61
2022-11-20T17:23:16.442Z,96.30
2022-11-20T17:24:16.385Z,96.41
2022-11-20T17:25:16.398Z,96.09
2022-11-20T17:26:16.449Z,95.57
2022-11-20T17:27:16.362Z,95.57
2022-11-20T17:28:16.332Z,95.48
2022-11-20T17:29:16.359Z,95.48
2022-11-20T17:30:16.334Z,95.48
2022-11-20T17:31:16.320Z,95.48
2022-11-20T17:32:16.585Z,95.48
2022-11-20T17:33:16.287Z,95.48
2022-11-20T17:34:16.264Z,95.27
2022-11-20T17:35:16.284Z,95.37
2022-11-20T17:36:16.232Z,95.57
2022-11-20T17:37:16.283Z,95.27
2022-11-20T17:38:16.276Z,95.37
2022-11-20T17:39:16.228Z,95.48
2022-11-20T17:40:16.194Z,95.78
2022-11-20T17:41:16.183Z,95.89
2022-11-20T17:42:16.151Z,96.09
2022-11-20T17:43:16.172Z,96.09
2022-11-20T17:44:16.774Z,96.20
2022-11-20T17:45:16.163Z,96.20
2022-11-20T17:46:16.114Z,96.09
2022-11-20T17:47:16.112Z,96.20
2022-11-20T17:48:16.071Z,96.09
2022-11-20T17:49:18.928Z,96.30
2022-11-20T17:50:17.307Z,96.30
2022-11-20T17:51:16.067Z,96.30
2022-11-20T17:52:16.031Z,96.41
2022-11-20T17:53:16.073Z,96.30
2022-11-20T17:54:15.990Z,95.99
2022-11-20T17:55:16.008Z,96.09